sensor_id;sensor_type;location;lat;lon;timestamp;P1;durP1;ratioP1;P2;durP2;ratioP2
20870;SDS011;10595;51.218;3.452;2023-04-15T00:01:22;7.03;;;5.93;;
20870;SDS011;10595;51.218;3.452;2023-04-15T00:03:50;6.57;;;5.30;;
20870;SDS011;10595;51.218;3.452;2023-04-15T00:06:16;6.20;;;5.60;;
20870;SDS011;10595;51.218;3.452;2023-04-15T00:08:43;6.27;;;5.20;;
20870;SDS011;10595;51.218;3.452;2023-04-15T00:11:09;6.87;;;5.70;;
20870;SDS011;10595;51.218;3.452;2023-04-15T00:13:36;7.67;;;5.20;;
20870;SDS011;10595;51.218;3.452;2023-04-15T00:16:02;8.37;;;5.20;;
20870;SDS011;10595;51.218;3.452;2023-04-15T00:18:28;6.80;;;5.47;;
20870;SDS011;10595;51.218;3.452;2023-04-15T00:20:55;5.40;;;4.90;;
20870;SDS011;10595;51.218;3.452;2023-04-15T00:23:21;7.10;;;5.50;;
20870;SDS011;10595;51.218;3.452;2023-04-15T00:25:47;6.07;;;5.20;;
20870;SDS011;10595;51.218;3.452;2023-04-15T00:28:13;7.57;;;4.80;;
20870;SDS011;10595;51.218;3.452;2023-04-15T00:30:39;7.20;;;5.77;;
20870;SDS011;10595;51.218;3.452;2023-04-15T00:33:06;7.77;;;5.43;;
20870;SDS011;10595;51.218;3.452;2023-04-15T00:35:32;5.87;;;5.00;;
20870;SDS011;10595;51.218;3.452;2023-04-15T00:37:58;6.57;;;5.13;;
20870;SDS011;10595;51.218;3.452;2023-04-15T00:40:24;6.20;;;4.87;;
20870;SDS011;10595;51.218;3.452;2023-04-15T00:42:51;5.13;;;4.63;;
20870;SDS011;10595;51.218;3.452;2023-04-15T00:45:18;6.03;;;4.53;;
20870;SDS011;10595;51.218;3.452;2023-04-15T00:47:44;7.67;;;4.83;;
20870;SDS011;10595;51.218;3.452;2023-04-15T00:50:11;5.13;;;4.50;;
20870;SDS011;10595;51.218;3.452;2023-04-15T00:52:37;5.97;;;4.73;;
20870;SDS011;10595;51.218;3.452;2023-04-15T00:55:04;5.23;;;4.43;;
20870;SDS011;10595;51.218;3.452;2023-04-15T00:57:30;5.80;;;4.77;;
20870;SDS011;10595;51.218;3.452;2023-04-15T00:59:57;5.47;;;4.60;;
20870;SDS011;10595;51.218;3.452;2023-04-15T01:02:23;6.43;;;4.87;;
20870;SDS011;10595;51.218;3.452;2023-04-15T01:04:49;6.90;;;4.90;;
20870;SDS011;10595;51.218;3.452;2023-04-15T01:07:15;7.77;;;5.03;;
20870;SDS011;10595;51.218;3.452;2023-04-15T01:09:41;6.37;;;5.10;;
20870;SDS011;10595;51.218;3.452;2023-04-15T01:12:09;8.97;;;5.40;;
20870;SDS011;10595;51.218;3.452;2023-04-15T01:14:36;9.17;;;6.10;;
20870;SDS011;10595;51.218;3.452;2023-04-15T01:17:02;8.70;;;5.33;;
20870;SDS011;10595;51.218;3.452;2023-04-15T01:19:28;6.77;;;5.20;;
20870;SDS011;10595;51.218;3.452;2023-04-15T01:21:55;7.27;;;6.30;;
20870;SDS011;10595;51.218;3.452;2023-04-15T01:24:21;8.03;;;5.57;;
20870;SDS011;10595;51.218;3.452;2023-04-15T01:26:47;6.40;;;5.53;;
20870;SDS011;10595;51.218;3.452;2023-04-15T01:29:14;8.43;;;5.77;;
20870;SDS011;10595;51.218;3.452;2023-04-15T01:31:40;7.57;;;5.90;;
20870;SDS011;10595;51.218;3.452;2023-04-15T01:34:13;7.53;;;6.37;;
20870;SDS011;10595;51.218;3.452;2023-04-15T01:36:40;10.67;;;6.30;;
20870;SDS011;10595;51.218;3.452;2023-04-15T01:39:06;7.87;;;5.60;;
20870;SDS011;10595;51.218;3.452;2023-04-15T01:41:32;7.10;;;5.80;;
20870;SDS011;10595;51.218;3.452;2023-04-15T01:43:58;8.07;;;5.47;;
20870;SDS011;10595;51.218;3.452;2023-04-15T01:46:25;5.77;;;5.17;;
20870;SDS011;10595;51.218;3.452;2023-04-15T01:48:51;7.47;;;4.70;;
20870;SDS011;10595;51.218;3.452;2023-04-15T01:51:17;6.20;;;4.40;;
20870;SDS011;10595;51.218;3.452;2023-04-15T01:53:43;6.57;;;4.47;;
20870;SDS011;10595;51.218;3.452;2023-04-15T01:56:09;8.47;;;4.60;;
20870;SDS011;10595;51.218;3.452;2023-04-15T01:58:36;7.47;;;4.80;;
20870;SDS011;10595;51.218;3.452;2023-04-15T02:01:02;8.23;;;5.20;;
20870;SDS011;10595;51.218;3.452;2023-04-15T02:03:28;7.27;;;4.90;;
20870;SDS011;10595;51.218;3.452;2023-04-15T02:05:54;5.70;;;4.77;;
20870;SDS011;10595;51.218;3.452;2023-04-15T02:08:20;8.27;;;5.00;;
20870;SDS011;10595;51.218;3.452;2023-04-15T02:10:46;6.23;;;4.53;;
20870;SDS011;10595;51.218;3.452;2023-04-15T02:13:13;7.60;;;5.13;;
20870;SDS011;10595;51.218;3.452;2023-04-15T02:15:39;13.77;;;4.80;;
20870;SDS011;10595;51.218;3.452;2023-04-15T02:18:05;5.80;;;4.50;;
20870;SDS011;10595;51.218;3.452;2023-04-15T02:20:31;8.13;;;4.70;;
20870;SDS011;10595;51.218;3.452;2023-04-15T02:22:58;6.27;;;4.47;;
20870;SDS011;10595;51.218;3.452;2023-04-15T02:25:24;6.73;;;4.53;;
20870;SDS011;10595;51.218;3.452;2023-04-15T02:27:50;10.13;;;5.07;;
20870;SDS011;10595;51.218;3.452;2023-04-15T02:30:17;11.10;;;5.30;;
20870;SDS011;10595;51.218;3.452;2023-04-15T02:32:44;9.43;;;5.27;;
20870;SDS011;10595;51.218;3.452;2023-04-15T02:35:10;9.47;;;5.93;;
20870;SDS011;10595;51.218;3.452;2023-04-15T02:37:37;9.90;;;5.90;;
20870;SDS011;10595;51.218;3.452;2023-04-15T02:40:09;8.30;;;5.87;;
20870;SDS011;10595;51.218;3.452;2023-04-15T02:42:36;9.33;;;6.47;;
20870;SDS011;10595;51.218;3.452;2023-04-15T02:45:02;9.80;;;6.00;;
20870;SDS011;10595;51.218;3.452;2023-04-15T02:47:28;9.17;;;6.30;;
20870;SDS011;10595;51.218;3.452;2023-04-15T02:49:55;10.93;;;6.23;;
20870;SDS011;10595;51.218;3.452;2023-04-15T02:52:22;10.07;;;6.70;;
20870;SDS011;10595;51.218;3.452;2023-04-15T02:54:48;8.80;;;6.70;;
20870;SDS011;10595;51.218;3.452;2023-04-15T02:57:14;8.67;;;6.23;;
20870;SDS011;10595;51.218;3.452;2023-04-15T02:59:40;15.07;;;6.60;;
20870;SDS011;10595;51.218;3.452;2023-04-15T03:02:06;11.80;;;6.50;;
20870;SDS011;10595;51.218;3.452;2023-04-15T03:04:32;10.80;;;6.90;;
20870;SDS011;10595;51.218;3.452;2023-04-15T03:07:00;11.03;;;6.60;;
20870;SDS011;10595;51.218;3.452;2023-04-15T03:09:26;8.90;;;6.93;;
20870;SDS011;10595;51.218;3.452;2023-04-15T03:11:52;11.87;;;7.40;;
20870;SDS011;10595;51.218;3.452;2023-04-15T03:14:18;10.53;;;7.23;;
20870;SDS011;10595;51.218;3.452;2023-04-15T03:16:44;10.77;;;7.53;;
20870;SDS011;10595;51.218;3.452;2023-04-15T03:19:10;10.97;;;7.50;;
20870;SDS011;10595;51.218;3.452;2023-04-15T03:21:37;11.77;;;7.40;;
20870;SDS011;10595;51.218;3.452;2023-04-15T03:24:03;13.07;;;7.53;;
20870;SDS011;10595;51.218;3.452;2023-04-15T03:26:29;10.73;;;7.53;;
20870;SDS011;10595;51.218;3.452;2023-04-15T03:28:56;11.57;;;7.67;;
20870;SDS011;10595;51.218;3.452;2023-04-15T03:31:22;12.97;;;7.80;;
20870;SDS011;10595;51.218;3.452;2023-04-15T03:33:48;12.23;;;7.50;;
20870;SDS011;10595;51.218;3.452;2023-04-15T03:36:15;16.67;;;7.97;;
20870;SDS011;10595;51.218;3.452;2023-04-15T03:38:41;13.70;;;8.20;;
20870;SDS011;10595;51.218;3.452;2023-04-15T03:41:07;13.70;;;8.80;;
20870;SDS011;10595;51.218;3.452;2023-04-15T03:43:33;12.83;;;8.70;;
20870;SDS011;10595;51.218;3.452;2023-04-15T03:46:00;13.40;;;8.53;;
20870;SDS011;10595;51.218;3.452;2023-04-15T03:48:26;13.83;;;8.93;;
20870;SDS011;10595;51.218;3.452;2023-04-15T03:50:52;16.20;;;9.80;;
20870;SDS011;10595;51.218;3.452;2023-04-15T03:53:18;15.90;;;10.47;;
20870;SDS011;10595;51.218;3.452;2023-04-15T03:55:44;18.33;;;10.43;;
20870;SDS011;10595;51.218;3.452;2023-04-15T03:58:11;20.07;;;11.17;;
20870;SDS011;10595;51.218;3.452;2023-04-15T04:00:37;21.17;;;11.97;;
20870;SDS011;10595;51.218;3.452;2023-04-15T04:03:03;17.07;;;11.63;;
20870;SDS011;10595;51.218;3.452;2023-04-15T04:05:29;20.53;;;13.03;;
20870;SDS011;10595;51.218;3.452;2023-04-15T04:07:55;25.40;;;13.77;;
20870;SDS011;10595;51.218;3.452;2023-04-15T04:10:21;22.03;;;13.73;;
20870;SDS011;10595;51.218;3.452;2023-04-15T04:12:47;23.07;;;14.80;;
20870;SDS011;10595;51.218;3.452;2023-04-15T04:15:13;27.27;;;16.43;;
20870;SDS011;10595;51.218;3.452;2023-04-15T04:17:39;29.30;;;17.43;;
20870;SDS011;10595;51.218;3.452;2023-04-15T04:20:06;24.30;;;18.40;;
20870;SDS011;10595;51.218;3.452;2023-04-15T04:22:36;28.73;;;19.27;;
20870;SDS011;10595;51.218;3.452;2023-04-15T04:25:03;30.67;;;20.87;;
20870;SDS011;10595;51.218;3.452;2023-04-15T04:27:29;34.70;;;21.57;;
20870;SDS011;10595;51.218;3.452;2023-04-15T04:29:55;33.53;;;20.33;;
20870;SDS011;10595;51.218;3.452;2023-04-15T04:32:21;30.17;;;20.40;;
20870;SDS011;10595;51.218;3.452;2023-04-15T04:34:47;31.10;;;19.07;;
20870;SDS011;10595;51.218;3.452;2023-04-15T04:37:14;28.17;;;18.50;;
20870;SDS011;10595;51.218;3.452;2023-04-15T04:39:40;30.80;;;19.60;;
20870;SDS011;10595;51.218;3.452;2023-04-15T04:42:06;32.43;;;18.40;;
20870;SDS011;10595;51.218;3.452;2023-04-15T04:44:32;29.97;;;20.57;;
20870;SDS011;10595;51.218;3.452;2023-04-15T04:46:58;33.27;;;20.00;;
20870;SDS011;10595;51.218;3.452;2023-04-15T04:49:24;32.50;;;20.40;;
20870;SDS011;10595;51.218;3.452;2023-04-15T04:51:50;39.10;;;22.47;;
20870;SDS011;10595;51.218;3.452;2023-04-15T04:54:17;33.60;;;22.03;;
20870;SDS011;10595;51.218;3.452;2023-04-15T04:56:43;36.27;;;22.87;;
20870;SDS011;10595;51.218;3.452;2023-04-15T04:59:09;33.53;;;23.00;;
20870;SDS011;10595;51.218;3.452;2023-04-15T05:01:35;37.43;;;24.37;;
20870;SDS011;10595;51.218;3.452;2023-04-15T05:04:01;46.27;;;29.37;;
20870;SDS011;10595;51.218;3.452;2023-04-15T05:06:28;42.43;;;27.43;;
20870;SDS011;10595;51.218;3.452;2023-04-15T05:08:55;46.40;;;27.30;;
20870;SDS011;10595;51.218;3.452;2023-04-15T05:11:21;42.30;;;26.87;;
20870;SDS011;10595;51.218;3.452;2023-04-15T05:13:47;42.03;;;25.47;;
20870;SDS011;10595;51.218;3.452;2023-04-15T05:16:13;37.23;;;24.93;;
20870;SDS011;10595;51.218;3.452;2023-04-15T05:18:39;42.13;;;27.93;;
20870;SDS011;10595;51.218;3.452;2023-04-15T05:21:05;37.90;;;25.33;;
20870;SDS011;10595;51.218;3.452;2023-04-15T05:23:32;37.53;;;24.07;;
20870;SDS011;10595;51.218;3.452;2023-04-15T05:25:58;35.97;;;23.00;;
20870;SDS011;10595;51.218;3.452;2023-04-15T05:28:24;35.33;;;21.80;;
20870;SDS011;10595;51.218;3.452;2023-04-15T05:30:51;30.47;;;20.63;;
20870;SDS011;10595;51.218;3.452;2023-04-15T05:33:17;27.90;;;18.53;;
20870;SDS011;10595;51.218;3.452;2023-04-15T05:35:43;28.87;;;17.83;;
20870;SDS011;10595;51.218;3.452;2023-04-15T05:38:09;28.90;;;19.33;;
20870;SDS011;10595;51.218;3.452;2023-04-15T05:40:35;28.13;;;18.47;;
20870;SDS011;10595;51.218;3.452;2023-04-15T05:43:01;25.60;;;17.57;;
20870;SDS011;10595;51.218;3.452;2023-04-15T05:45:27;27.03;;;17.33;;
20870;SDS011;10595;51.218;3.452;2023-04-15T05:47:53;24.70;;;15.93;;
20870;SDS011;10595;51.218;3.452;2023-04-15T05:50:19;26.33;;;16.27;;
20870;SDS011;10595;51.218;3.452;2023-04-15T05:52:45;21.77;;;14.90;;
20870;SDS011;10595;51.218;3.452;2023-04-15T05:55:11;21.03;;;13.57;;
20870;SDS011;10595;51.218;3.452;2023-04-15T05:57:38;20.27;;;12.83;;
20870;SDS011;10595;51.218;3.452;2023-04-15T06:00:04;23.67;;;13.03;;
20870;SDS011;10595;51.218;3.452;2023-04-15T06:02:31;19.70;;;12.03;;
20870;SDS011;10595;51.218;3.452;2023-04-15T06:04:57;17.37;;;12.10;;
20870;SDS011;10595;51.218;3.452;2023-04-15T06:07:23;19.63;;;11.93;;
20870;SDS011;10595;51.218;3.452;2023-04-15T06:09:49;16.93;;;11.10;;
20870;SDS011;10595;51.218;3.452;2023-04-15T06:12:15;13.50;;;9.60;;
20870;SDS011;10595;51.218;3.452;2023-04-15T06:14:41;16.03;;;10.60;;
20870;SDS011;10595;51.218;3.452;2023-04-15T06:17:07;12.03;;;8.40;;
20870;SDS011;10595;51.218;3.452;2023-04-15T06:19:34;10.67;;;7.97;;
20870;SDS011;10595;51.218;3.452;2023-04-15T06:22:03;10.83;;;7.50;;
20870;SDS011;10595;51.218;3.452;2023-04-15T06:24:31;9.77;;;6.80;;
20870;SDS011;10595;51.218;3.452;2023-04-15T06:26:57;10.70;;;6.60;;
20870;SDS011;10595;51.218;3.452;2023-04-15T06:29:23;13.63;;;7.07;;
20870;SDS011;10595;51.218;3.452;2023-04-15T06:31:49;10.97;;;5.97;;
20870;SDS011;10595;51.218;3.452;2023-04-15T06:34:15;11.30;;;7.60;;
20870;SDS011;10595;51.218;3.452;2023-04-15T06:36:41;14.97;;;7.77;;
20870;SDS011;10595;51.218;3.452;2023-04-15T06:39:07;10.80;;;6.67;;
20870;SDS011;10595;51.218;3.452;2023-04-15T06:41:34;9.33;;;5.73;;
20870;SDS011;10595;51.218;3.452;2023-04-15T06:44:00;8.67;;;4.43;;
20870;SDS011;10595;51.218;3.452;2023-04-15T06:46:26;7.70;;;3.70;;
20870;SDS011;10595;51.218;3.452;2023-04-15T06:48:52;6.40;;;5.17;;
20870;SDS011;10595;51.218;3.452;2023-04-15T06:51:18;7.23;;;3.40;;
20870;SDS011;10595;51.218;3.452;2023-04-15T06:53:45;9.03;;;4.10;;
20870;SDS011;10595;51.218;3.452;2023-04-15T06:56:11;5.10;;;2.97;;
20870;SDS011;10595;51.218;3.452;2023-04-15T06:58:37;4.20;;;2.80;;
20870;SDS011;10595;51.218;3.452;2023-04-15T07:01:03;7.47;;;2.63;;
20870;SDS011;10595;51.218;3.452;2023-04-15T07:03:29;17.27;;;6.83;;
20870;SDS011;10595;51.218;3.452;2023-04-15T07:05:55;8.17;;;3.00;;
20870;SDS011;10595;51.218;3.452;2023-04-15T07:08:21;6.63;;;2.33;;
20870;SDS011;10595;51.218;3.452;2023-04-15T07:10:48;26.50;;;7.67;;
20870;SDS011;10595;51.218;3.452;2023-04-15T07:13:14;34.90;;;9.57;;
20870;SDS011;10595;51.218;3.452;2023-04-15T07:15:40;24.53;;;7.30;;
20870;SDS011;10595;51.218;3.452;2023-04-15T07:18:06;45.70;;;12.33;;
20870;SDS011;10595;51.218;3.452;2023-04-15T07:20:33;24.80;;;6.93;;
20870;SDS011;10595;51.218;3.452;2023-04-15T07:23:00;19.50;;;8.50;;
20870;SDS011;10595;51.218;3.452;2023-04-15T07:25:26;29.60;;;11.23;;
20870;SDS011;10595;51.218;3.452;2023-04-15T07:27:52;39.43;;;12.90;;
20870;SDS011;10595;51.218;3.452;2023-04-15T07:30:18;33.00;;;12.17;;
20870;SDS011;10595;51.218;3.452;2023-04-15T07:32:44;31.63;;;13.00;;
20870;SDS011;10595;51.218;3.452;2023-04-15T07:35:11;30.83;;;13.17;;
20870;SDS011;10595;51.218;3.452;2023-04-15T07:37:37;18.37;;;10.53;;
20870;SDS011;10595;51.218;3.452;2023-04-15T07:40:03;28.80;;;13.33;;
20870;SDS011;10595;51.218;3.452;2023-04-15T07:42:31;44.07;;;17.40;;
20870;SDS011;10595;51.218;3.452;2023-04-15T07:44:57;41.87;;;17.97;;
20870;SDS011;10595;51.218;3.452;2023-04-15T07:47:23;32.10;;;16.07;;
20870;SDS011;10595;51.218;3.452;2023-04-15T07:49:49;26.10;;;15.63;;
20870;SDS011;10595;51.218;3.452;2023-04-15T07:52:15;23.80;;;14.43;;
20870;SDS011;10595;51.218;3.452;2023-04-15T07:54:42;28.53;;;15.83;;
20870;SDS011;10595;51.218;3.452;2023-04-15T07:57:08;41.53;;;18.93;;
20870;SDS011;10595;51.218;3.452;2023-04-15T07:59:34;25.60;;;14.97;;
20870;SDS011;10595;51.218;3.452;2023-04-15T08:02:00;26.00;;;16.20;;
20870;SDS011;10595;51.218;3.452;2023-04-15T08:04:26;33.13;;;18.10;;
20870;SDS011;10595;51.218;3.452;2023-04-15T08:06:52;22.83;;;15.40;;
20870;SDS011;10595;51.218;3.452;2023-04-15T08:09:18;25.00;;;14.87;;
20870;SDS011;10595;51.218;3.452;2023-04-15T08:11:47;26.73;;;15.57;;
20870;SDS011;10595;51.218;3.452;2023-04-15T08:14:13;23.20;;;14.90;;
20870;SDS011;10595;51.218;3.452;2023-04-15T08:16:39;24.10;;;14.77;;
20870;SDS011;10595;51.218;3.452;2023-04-15T08:19:05;20.30;;;14.77;;
20870;SDS011;10595;51.218;3.452;2023-04-15T08:21:31;24.17;;;14.57;;
20870;SDS011;10595;51.218;3.452;2023-04-15T08:23:57;18.97;;;13.30;;
20870;SDS011;10595;51.218;3.452;2023-04-15T08:26:24;23.77;;;15.87;;
20870;SDS011;10595;51.218;3.452;2023-04-15T08:28:50;19.63;;;13.83;;
20870;SDS011;10595;51.218;3.452;2023-04-15T08:31:17;22.10;;;13.93;;
20870;SDS011;10595;51.218;3.452;2023-04-15T08:33:43;18.00;;;13.80;;
20870;SDS011;10595;51.218;3.452;2023-04-15T08:36:10;19.43;;;13.27;;
20870;SDS011;10595;51.218;3.452;2023-04-15T08:38:37;16.33;;;13.10;;
20870;SDS011;10595;51.218;3.452;2023-04-15T08:41:11;18.17;;;12.70;;
20870;SDS011;10595;51.218;3.452;2023-04-15T08:43:46;16.93;;;12.17;;
20870;SDS011;10595;51.218;3.452;2023-04-15T08:46:13;18.20;;;13.47;;
20870;SDS011;10595;51.218;3.452;2023-04-15T08:48:39;18.60;;;13.03;;
20870;SDS011;10595;51.218;3.452;2023-04-15T08:51:07;21.63;;;14.17;;
20870;SDS011;10595;51.218;3.452;2023-04-15T08:53:33;19.63;;;13.63;;
20870;SDS011;10595;51.218;3.452;2023-04-15T08:55:59;19.27;;;13.20;;
20870;SDS011;10595;51.218;3.452;2023-04-15T08:58:26;18.93;;;12.93;;
20870;SDS011;10595;51.218;3.452;2023-04-15T09:00:53;17.13;;;11.53;;
20870;SDS011;10595;51.218;3.452;2023-04-15T09:03:19;18.97;;;13.23;;
20870;SDS011;10595;51.218;3.452;2023-04-15T09:05:47;18.63;;;13.20;;
20870;SDS011;10595;51.218;3.452;2023-04-15T09:08:15;18.67;;;13.10;;
20870;SDS011;10595;51.218;3.452;2023-04-15T09:10:41;17.50;;;12.90;;
20870;SDS011;10595;51.218;3.452;2023-04-15T09:13:07;20.17;;;12.50;;
20870;SDS011;10595;51.218;3.452;2023-04-15T09:15:33;16.83;;;12.50;;
20870;SDS011;10595;51.218;3.452;2023-04-15T09:18:03;16.60;;;12.40;;
20870;SDS011;10595;51.218;3.452;2023-04-15T09:20:29;19.53;;;12.67;;
20870;SDS011;10595;51.218;3.452;2023-04-15T09:22:56;18.40;;;12.07;;
20870;SDS011;10595;51.218;3.452;2023-04-15T09:27:52;14.00;;;11.37;;
20870;SDS011;10595;51.218;3.452;2023-04-15T09:30:19;28.40;;;15.50;;
20870;SDS011;10595;51.218;3.452;2023-04-15T09:32:52;19.03;;;13.17;;
20870;SDS011;10595;51.218;3.452;2023-04-15T09:35:19;16.17;;;11.80;;
20870;SDS011;10595;51.218;3.452;2023-04-15T09:37:45;15.97;;;11.53;;
20870;SDS011;10595;51.218;3.452;2023-04-15T09:40:12;15.47;;;10.33;;
20870;SDS011;10595;51.218;3.452;2023-04-15T09:42:54;15.80;;;10.00;;
20870;SDS011;10595;51.218;3.452;2023-04-15T09:45:20;12.83;;;9.07;;
20870;SDS011;10595;51.218;3.452;2023-04-15T09:47:46;12.93;;;9.40;;
20870;SDS011;10595;51.218;3.452;2023-04-15T09:50:12;13.63;;;9.17;;
20870;SDS011;10595;51.218;3.452;2023-04-15T09:52:42;13.93;;;8.80;;
20870;SDS011;10595;51.218;3.452;2023-04-15T09:55:08;13.73;;;7.90;;
20870;SDS011;10595;51.218;3.452;2023-04-15T09:57:35;13.37;;;9.00;;
20870;SDS011;10595;51.218;3.452;2023-04-15T10:00:02;9.63;;;7.13;;
20870;SDS011;10595;51.218;3.452;2023-04-15T10:02:29;12.73;;;8.67;;
20870;SDS011;10595;51.218;3.452;2023-04-15T10:04:55;10.53;;;7.47;;
20870;SDS011;10595;51.218;3.452;2023-04-15T10:07:21;10.03;;;7.37;;
20870;SDS011;10595;51.218;3.452;2023-04-15T10:09:48;11.87;;;7.73;;
20870;SDS011;10595;51.218;3.452;2023-04-15T10:12:17;11.03;;;7.50;;
20870;SDS011;10595;51.218;3.452;2023-04-15T10:14:43;10.40;;;8.00;;
20870;SDS011;10595;51.218;3.452;2023-04-15T10:17:10;9.67;;;7.53;;
20870;SDS011;10595;51.218;3.452;2023-04-15T10:19:37;10.60;;;7.67;;
20870;SDS011;10595;51.218;3.452;2023-04-15T10:22:03;12.17;;;8.60;;
20870;SDS011;10595;51.218;3.452;2023-04-15T10:24:32;13.13;;;8.77;;
20870;SDS011;10595;51.218;3.452;2023-04-15T10:26:58;12.13;;;8.00;;
20870;SDS011;10595;51.218;3.452;2023-04-15T10:29:24;10.57;;;7.83;;
20870;SDS011;10595;51.218;3.452;2023-04-15T10:31:53;10.57;;;8.07;;
20870;SDS011;10595;51.218;3.452;2023-04-15T10:34:19;12.47;;;9.10;;
20870;SDS011;10595;51.218;3.452;2023-04-15T10:36:45;12.87;;;7.40;;
20870;SDS011;10595;51.218;3.452;2023-04-15T10:42:07;8.47;;;6.40;;
20870;SDS011;10595;51.218;3.452;2023-04-15T10:44:34;9.17;;;6.00;;
20870;SDS011;10595;51.218;3.452;2023-04-15T10:47:03;10.63;;;6.65;;
20870;SDS011;10595;51.218;3.452;2023-04-15T10:49:29;11.93;;;5.40;;
20870;SDS011;10595;51.218;3.452;2023-04-15T10:51:56;8.43;;;4.77;;
20870;SDS011;10595;51.218;3.452;2023-04-15T10:57:05;8.00;;;4.77;;
20870;SDS011;10595;51.218;3.452;2023-04-15T10:59:32;10.80;;;5.60;;
20870;SDS011;10595;51.218;3.452;2023-04-15T11:02:11;10.83;;;5.33;;
20870;SDS011;10595;51.218;3.452;2023-04-15T11:07:37;7.33;;;4.50;;
20870;SDS011;10595;51.218;3.452;2023-04-15T11:12:39;7.50;;;4.43;;
20870;SDS011;10595;51.218;3.452;2023-04-15T11:17:51;6.30;;;5.07;;
20870;SDS011;10595;51.218;3.452;2023-04-15T11:20:17;6.70;;;4.90;;
20870;SDS011;10595;51.218;3.452;2023-04-15T11:22:50;7.60;;;4.90;;
20870;SDS011;10595;51.218;3.452;2023-04-15T11:25:26;7.37;;;4.40;;
20870;SDS011;10595;51.218;3.452;2023-04-15T11:27:52;5.30;;;4.60;;
20870;SDS011;10595;51.218;3.452;2023-04-15T11:30:19;5.63;;;4.87;;
20870;SDS011;10595;51.218;3.452;2023-04-15T11:32:46;4.43;;;4.00;;
20870;SDS011;10595;51.218;3.452;2023-04-15T11:35:12;4.50;;;3.83;;
20870;SDS011;10595;51.218;3.452;2023-04-15T11:37:38;4.63;;;4.13;;
20870;SDS011;10595;51.218;3.452;2023-04-15T11:40:05;5.07;;;3.90;;
20870;SDS011;10595;51.218;3.452;2023-04-15T11:42:31;5.63;;;4.63;;
20870;SDS011;10595;51.218;3.452;2023-04-15T11:45:07;7.13;;;4.43;;
20870;SDS011;10595;51.218;3.452;2023-04-15T11:47:34;5.67;;;4.20;;
20870;SDS011;10595;51.218;3.452;2023-04-15T11:50:16;8.83;;;4.93;;
20870;SDS011;10595;51.218;3.452;2023-04-15T11:55:18;7.27;;;5.70;;
20870;SDS011;10595;51.218;3.452;2023-04-15T11:57:44;9.30;;;6.20;;
20870;SDS011;10595;51.218;3.452;2023-04-15T12:00:10;9.37;;;6.37;;
20870;SDS011;10595;51.218;3.452;2023-04-15T12:02:36;9.70;;;6.17;;
20870;SDS011;10595;51.218;3.452;2023-04-15T12:05:03;9.90;;;6.90;;
20870;SDS011;10595;51.218;3.452;2023-04-15T12:07:29;7.37;;;5.87;;
20870;SDS011;10595;51.218;3.452;2023-04-15T12:09:55;7.87;;;5.63;;
20870;SDS011;10595;51.218;3.452;2023-04-15T12:12:25;9.80;;;6.00;;
20870;SDS011;10595;51.218;3.452;2023-04-15T12:14:52;10.37;;;6.63;;
20870;SDS011;10595;51.218;3.452;2023-04-15T12:17:18;11.93;;;7.60;;
20870;SDS011;10595;51.218;3.452;2023-04-15T12:19:45;13.77;;;6.93;;
20870;SDS011;10595;51.218;3.452;2023-04-15T12:22:13;13.80;;;9.03;;
20870;SDS011;10595;51.218;3.452;2023-04-15T12:24:40;10.33;;;8.37;;
20870;SDS011;10595;51.218;3.452;2023-04-15T12:27:09;15.13;;;10.13;;
20870;SDS011;10595;51.218;3.452;2023-04-15T12:29:36;13.70;;;8.77;;
20870;SDS011;10595;51.218;3.452;2023-04-15T12:32:07;14.60;;;10.47;;
20870;SDS011;10595;51.218;3.452;2023-04-15T12:34:34;14.97;;;11.80;;
20870;SDS011;10595;51.218;3.452;2023-04-15T12:37:01;16.40;;;11.73;;
20870;SDS011;10595;51.218;3.452;2023-04-15T12:39:29;17.40;;;11.80;;
20870;SDS011;10595;51.218;3.452;2023-04-15T12:41:56;19.40;;;12.60;;
20870;SDS011;10595;51.218;3.452;2023-04-15T12:44:24;15.93;;;11.70;;
20870;SDS011;10595;51.218;3.452;2023-04-15T12:46:50;16.27;;;11.47;;
20870;SDS011;10595;51.218;3.452;2023-04-15T12:49:19;17.13;;;11.90;;
20870;SDS011;10595;51.218;3.452;2023-04-15T12:51:47;17.67;;;12.33;;
20870;SDS011;10595;51.218;3.452;2023-04-15T12:54:13;13.73;;;10.83;;
20870;SDS011;10595;51.218;3.452;2023-04-15T12:56:39;14.27;;;10.37;;
20870;SDS011;10595;51.218;3.452;2023-04-15T12:59:05;20.33;;;11.20;;
20870;SDS011;10595;51.218;3.452;2023-04-15T13:01:31;16.27;;;11.80;;
20870;SDS011;10595;51.218;3.452;2023-04-15T13:03:57;13.97;;;9.37;;
20870;SDS011;10595;51.218;3.452;2023-04-15T13:06:23;14.83;;;10.40;;
20870;SDS011;10595;51.218;3.452;2023-04-15T13:08:49;12.97;;;9.70;;
20870;SDS011;10595;51.218;3.452;2023-04-15T13:11:18;16.03;;;9.73;;
20870;SDS011;10595;51.218;3.452;2023-04-15T13:13:44;15.63;;;9.60;;
20870;SDS011;10595;51.218;3.452;2023-04-15T13:16:10;16.60;;;9.70;;
20870;SDS011;10595;51.218;3.452;2023-04-15T13:18:36;14.90;;;9.23;;
20870;SDS011;10595;51.218;3.452;2023-04-15T13:21:02;14.57;;;9.00;;
20870;SDS011;10595;51.218;3.452;2023-04-15T13:23:31;14.87;;;9.20;;
20870;SDS011;10595;51.218;3.452;2023-04-15T13:25:57;13.83;;;9.07;;
20870;SDS011;10595;51.218;3.452;2023-04-15T13:28:23;14.00;;;9.07;;
20870;SDS011;10595;51.218;3.452;2023-04-15T13:30:49;16.10;;;9.07;;
20870;SDS011;10595;51.218;3.452;2023-04-15T13:33:16;13.27;;;8.93;;
20870;SDS011;10595;51.218;3.452;2023-04-15T13:35:42;13.43;;;8.80;;
20870;SDS011;10595;51.218;3.452;2023-04-15T13:38:08;19.10;;;9.17;;
20870;SDS011;10595;51.218;3.452;2023-04-15T13:40:34;14.33;;;8.60;;
20870;SDS011;10595;51.218;3.452;2023-04-15T13:43:00;15.37;;;8.77;;
20870;SDS011;10595;51.218;3.452;2023-04-15T13:45:27;15.07;;;8.77;;
20870;SDS011;10595;51.218;3.452;2023-04-15T13:47:54;16.43;;;9.63;;
20870;SDS011;10595;51.218;3.452;2023-04-15T13:50:20;13.27;;;8.23;;
20870;SDS011;10595;51.218;3.452;2023-04-15T13:52:46;11.20;;;7.90;;
20870;SDS011;10595;51.218;3.452;2023-04-15T13:55:12;13.37;;;8.57;;
20870;SDS011;10595;51.218;3.452;2023-04-15T13:57:38;11.47;;;8.07;;
20870;SDS011;10595;51.218;3.452;2023-04-15T14:00:05;13.50;;;7.00;;
20870;SDS011;10595;51.218;3.452;2023-04-15T14:02:31;9.70;;;6.40;;
20870;SDS011;10595;51.218;3.452;2023-04-15T14:04:57;10.33;;;5.83;;
20870;SDS011;10595;51.218;3.452;2023-04-15T14:07:23;10.67;;;5.23;;
20870;SDS011;10595;51.218;3.452;2023-04-15T14:09:49;9.33;;;5.60;;
20870;SDS011;10595;51.218;3.452;2023-04-15T14:12:15;8.70;;;5.23;;
20870;SDS011;10595;51.218;3.452;2023-04-15T14:14:41;10.33;;;5.13;;
20870;SDS011;10595;51.218;3.452;2023-04-15T14:17:07;9.50;;;5.17;;
20870;SDS011;10595;51.218;3.452;2023-04-15T14:19:33;7.33;;;4.47;;
20870;SDS011;10595;51.218;3.452;2023-04-15T14:21:59;11.53;;;4.87;;
20870;SDS011;10595;51.218;3.452;2023-04-15T14:24:26;7.70;;;4.17;;
20870;SDS011;10595;51.218;3.452;2023-04-15T14:26:52;8.53;;;4.23;;
20870;SDS011;10595;51.218;3.452;2023-04-15T14:29:18;5.60;;;3.37;;
20870;SDS011;10595;51.218;3.452;2023-04-15T14:31:44;9.47;;;3.47;;
20870;SDS011;10595;51.218;3.452;2023-04-15T14:34:10;5.77;;;3.20;;
20870;SDS011;10595;51.218;3.452;2023-04-15T14:36:36;4.77;;;2.30;;
20870;SDS011;10595;51.218;3.452;2023-04-15T14:39:02;4.37;;;2.80;;
20870;SDS011;10595;51.218;3.452;2023-04-15T14:41:29;8.33;;;2.70;;
20870;SDS011;10595;51.218;3.452;2023-04-15T14:43:55;8.33;;;3.17;;
20870;SDS011;10595;51.218;3.452;2023-04-15T14:46:21;6.63;;;2.77;;
20870;SDS011;10595;51.218;3.452;2023-04-15T14:48:47;5.77;;;3.27;;